Central Square, New York
Current Conditions -  °F | °C
As of 2:54 PM on Friday 28 Nov 2014 (Local Time) from KSYR Reporting Station
Overcast Overcast  
Wind Chill: 14°   Ceiling: 5000
Heat Index: 26°   Visibility: 10mi
Dew Point: 15°   Wind: 14mph
Humidity: 63%   Direction: 270°W
Pressure: 30.2"   Gusts: 24mph
Location:  43.29°N, 76.15°W
Report Text: KSYR 281954Z 27012G21KT 10SM SCT032 OVC050 M03/M09 A3020 RMK AO2 SNE42 SLP229 P0000 T10331094
Loading
Personal Weather Stations






























Interactive Weather Map New forecast layout! Learn more

10-Day Weather Forecast

Advertisements
Track Severe Weather on mobile